This is the latest recevied weather packets stored in our database for station/object DL6SW-10. If no packets are shown the sender has not sent any weather packets the latest 10 day(s).
| Time | Temp. | Humidity | Pressure | Rain* | Wind** | Luminosity | Snow |
|---|---|---|---|---|---|---|---|
| 1777645325 | 42.22° C | 12% | 1025 hPa | - | - | - | - |
| 1777644434 | 40° C | 12% | 1025.1 hPa | - | - | - | - |
| 1777644424 | 40° C | 12% | 1025.1 hPa | - | - | - | - |
| 1777643540 | 36.11° C | 14% | 1025.6 hPa | - | - | - | - |
| 1777643522 | 36.11° C | 14% | 1025.6 hPa | - | - | - | - |
| 1777642625 | 36.67° C | 14% | 1025.8 hPa | - | - | - | - |
| 1777642621 | 36.67° C | 14% | 1025.8 hPa | - | - | - | - |
| 1777641724 | 33.89° C | 15% | 1026.1 hPa | - | - | - | - |
| 1777641720 | 33.89° C | 15% | 1026.1 hPa | - | - | - | - |
| 1777640854 | 31.67° C | 16% | 1026.3 hPa | - | - | - | - |
| 1777640819 | 31.67° C | 16% | 1026.3 hPa | - | - | - | - |
| 1777639920 | 31.67° C | 16% | 1027 hPa | - | - | - | - |
| 1777639061 | 30.56° C | 16% | 1027.1 hPa | - | - | - | - |
| 1777639014 | 30.56° C | 16% | 1027.1 hPa | - | - | - | - |
| 1777638119 | 32.78° C | 16% | 1026.5 hPa | - | - | - | - |
| 1777638113 | 32.78° C | 16% | 1026.5 hPa | - | - | - | - |
| 1777636316 | 28.33° C | 18% | 1027.1 hPa | - | - | - | - |
| 1777636310 | 28.33° C | 18% | 1027.1 hPa | - | - | - | - |
| 1777635414 | 28.33° C | 18% | 1027.3 hPa | - | - | - | - |
| 1777635409 | 28.33° C | 18% | 1027.3 hPa | - | - | - | - |
| 1777634514 | 27.78° C | 19% | 1027.5 hPa | - | - | - | - |
| 1777634508 | 27.78° C | 19% | 1027.5 hPa | - | - | - | - |
| 1777633633 | 26.11° C | 20% | 1027.7 hPa | - | - | - | - |
| 1777633607 | 26.11° C | 20% | 1027.7 hPa | - | - | - | - |
| 1777632718 | 27.78° C | 20% | 1027.5 hPa | - | - | - | - |
* Rain since midnight (hover to see other rain measurements)
** Current wind speed in m/s (hover to see current wind gust speed)